createdAt,value
2018-08-20T00:01:44.438Z,20.50
2018-08-20T00:04:13.431Z,20.50
2018-08-20T00:06:55.235Z,20.50
2018-08-20T00:09:35.963Z,20.50
2018-08-20T00:12:06.333Z,20.50
2018-08-20T00:14:35.315Z,20.50
2018-08-20T00:17:04.518Z,20.50
2018-08-20T00:19:33.940Z,20.50
2018-08-20T00:22:03.103Z,20.50
2018-08-20T00:24:32.088Z,20.40
2018-08-20T00:27:02.527Z,20.40
2018-08-20T00:29:32.349Z,20.40
2018-08-20T00:32:01.671Z,20.50
2018-08-20T00:34:30.714Z,20.40
2018-08-20T00:36:59.694Z,20.50
2018-08-20T00:39:28.646Z,20.50
2018-08-20T00:41:58.136Z,20.60
2018-08-20T00:44:27.398Z,20.70
2018-08-20T00:46:56.961Z,20.80
2018-08-20T00:49:26.227Z,20.80
2018-08-20T00:51:55.230Z,20.90
2018-08-20T00:54:24.252Z,21.00
2018-08-20T00:56:53.376Z,21.10
2018-08-20T00:59:22.394Z,21.20
2018-08-20T01:01:51.539Z,21.20
2018-08-20T01:04:20.585Z,21.30
2018-08-20T01:06:49.561Z,21.30
2018-08-20T01:09:18.519Z,21.40
2018-08-20T01:11:47.495Z,21.40
2018-08-20T01:14:16.475Z,21.40
2018-08-20T01:16:45.589Z,21.50
2018-08-20T01:19:14.600Z,21.50
2018-08-20T01:21:43.643Z,21.60
2018-08-20T01:24:12.680Z,21.50
2018-08-20T01:26:41.655Z,21.60
2018-08-20T01:29:10.663Z,21.60
2018-08-20T01:31:40.948Z,21.60
2018-08-20T01:34:10.378Z,21.60
2018-08-20T01:36:39.407Z,21.60
2018-08-20T01:39:08.401Z,21.60
2018-08-20T01:41:37.378Z,21.60
2018-08-20T01:44:06.378Z,21.60
2018-08-20T01:46:35.327Z,21.70
2018-08-20T01:49:04.301Z,21.60
2018-08-20T01:51:33.451Z,21.60
2018-08-20T01:54:02.475Z,21.60
2018-08-20T01:56:31.638Z,21.60
2018-08-20T01:59:01.273Z,21.60
2018-08-20T02:01:30.825Z,21.60
2018-08-20T02:03:59.910Z,21.60
2018-08-20T02:06:29.127Z,21.70
2018-08-20T02:08:58.070Z,21.70
2018-08-20T02:11:27.101Z,21.70
2018-08-20T02:13:56.147Z,21.80
2018-08-20T02:16:25.339Z,21.80
2018-08-20T02:18:54.339Z,21.90
2018-08-20T02:21:23.343Z,21.90
2018-08-20T02:23:52.340Z,21.90
2018-08-20T02:26:21.352Z,22.00
2018-08-20T02:28:50.800Z,22.00
2018-08-20T02:31:19.831Z,22.00
2018-08-20T02:33:48.792Z,22.00
2018-08-20T02:36:18.064Z,22.00
2018-08-20T02:38:47.051Z,22.00
2018-08-20T02:43:51.687Z,22.10
2018-08-20T02:46:32.152Z,22.10
2018-08-20T02:49:01.527Z,22.00
2018-08-20T02:51:30.647Z,21.90
2018-08-20T02:53:59.719Z,21.80
2018-08-20T02:56:28.684Z,21.70
2018-08-20T02:58:57.667Z,21.70
2018-08-20T03:01:26.945Z,21.70
2018-08-20T03:03:55.939Z,21.70
2018-08-20T03:06:24.908Z,21.70
2018-08-20T03:08:53.883Z,21.80
2018-08-20T03:11:23.115Z,21.80
2018-08-20T03:13:52.250Z,21.80
2018-08-20T03:16:21.355Z,21.80
2018-08-20T03:18:50.636Z,21.80
2018-08-20T03:21:19.783Z,21.80
2018-08-20T03:23:48.846Z,21.90
2018-08-20T03:26:17.918Z,21.90
2018-08-20T03:28:46.920Z,21.90
2018-08-20T03:31:15.952Z,22.00
2018-08-20T03:33:44.976Z,22.00
2018-08-20T03:36:13.959Z,22.00
2018-08-20T03:38:43.027Z,22.00
2018-08-20T03:41:13.908Z,22.00
2018-08-20T03:43:42.927Z,21.90
2018-08-20T03:46:12.069Z,21.90
2018-08-20T03:48:41.383Z,21.80
2018-08-20T03:51:10.352Z,21.80
2018-08-20T03:53:39.295Z,21.80
2018-08-20T03:56:08.266Z,21.80
2018-08-20T03:58:37.239Z,21.80
2018-08-20T04:01:06.461Z,21.80
2018-08-20T04:03:35.651Z,21.80
2018-08-20T04:06:04.663Z,21.80
2018-08-20T04:08:33.643Z,21.80
2018-08-20T04:11:02.651Z,21.80
2018-08-20T04:13:31.719Z,21.80
2018-08-20T04:16:00.816Z,21.70
2018-08-20T04:18:29.783Z,21.70
2018-08-20T04:20:58.751Z,21.70
2018-08-20T04:23:28.108Z,21.60
2018-08-20T04:25:57.408Z,21.60
2018-08-20T04:28:26.390Z,21.60
2018-08-20T04:30:55.347Z,21.60
2018-08-20T04:33:24.350Z,21.50
2018-08-20T04:35:53.528Z,21.40
2018-08-20T04:38:22.541Z,21.30
2018-08-20T04:40:51.559Z,21.30
2018-08-20T04:43:20.549Z,21.30
2018-08-20T04:45:49.542Z,21.30
2018-08-20T04:48:18.659Z,21.30
2018-08-20T04:50:47.629Z,21.30
2018-08-20T04:53:16.589Z,21.30
2018-08-20T04:55:45.611Z,21.30
2018-08-20T04:58:14.690Z,21.40
2018-08-20T05:00:43.863Z,21.40
2018-08-20T05:03:16.144Z,21.40
2018-08-20T05:05:45.221Z,21.40
2018-08-20T05:08:14.197Z,21.40
2018-08-20T05:10:43.336Z,21.50
2018-08-20T05:13:12.373Z,21.50
2018-08-20T05:15:41.361Z,21.50
2018-08-20T05:18:10.407Z,21.50
2018-08-20T05:20:39.393Z,21.60
2018-08-20T05:23:08.391Z,21.60
2018-08-20T05:25:37.367Z,21.60
2018-08-20T05:28:06.353Z,21.60
2018-08-20T05:30:35.512Z,21.60
2018-08-20T05:33:04.774Z,21.60
2018-08-20T05:35:33.717Z,21.60
2018-08-20T05:38:03.003Z,21.60
2018-08-20T05:40:32.008Z,21.60
2018-08-20T05:43:00.988Z,21.60
2018-08-20T05:45:30.011Z,21.80
2018-08-20T05:47:59.335Z,21.80
2018-08-20T05:50:28.371Z,21.90
2018-08-20T05:52:57.425Z,22.00
2018-08-20T05:55:26.436Z,22.10
2018-08-20T05:57:55.419Z,22.00
2018-08-20T06:00:24.412Z,22.10
2018-08-20T06:02:53.366Z,22.00
2018-08-20T06:05:22.326Z,22.00
2018-08-20T06:07:51.306Z,22.00
2018-08-20T06:10:20.851Z,22.10
2018-08-20T06:12:49.875Z,22.20
2018-08-20T06:15:18.882Z,22.20
2018-08-20T06:17:48.033Z,22.20
2018-08-20T06:20:17.891Z,22.10
2018-08-20T06:22:46.880Z,22.10
2018-08-20T06:25:16.220Z,22.00
2018-08-20T06:27:45.535Z,22.00
2018-08-20T06:30:16.867Z,22.10
2018-08-20T06:32:46.035Z,22.00
2018-08-20T06:35:15.038Z,22.00
2018-08-20T06:37:43.995Z,22.10
2018-08-20T06:40:14.232Z,22.20
2018-08-20T06:42:43.211Z,22.10
2018-08-20T06:45:14.572Z,22.10
2018-08-20T06:47:44.658Z,22.00
2018-08-20T06:50:14.223Z,22.00
2018-08-20T06:52:44.096Z,22.00
2018-08-20T06:55:14.340Z,22.00
2018-08-20T07:00:13.751Z,22.30
2018-08-20T07:02:43.406Z,22.40
2018-08-20T07:05:12.681Z,22.50
2018-08-20T07:07:42.054Z,22.70
2018-08-20T07:10:12.714Z,22.80
2018-08-20T07:12:41.986Z,22.70
2018-08-20T07:15:12.758Z,22.70
2018-08-20T07:17:41.720Z,22.80
2018-08-20T07:20:12.239Z,22.80
2018-08-20T07:22:41.275Z,22.90
2018-08-20T07:25:10.297Z,22.70
2018-08-20T07:27:39.236Z,22.50
2018-08-20T07:30:09.354Z,22.50
2018-08-20T07:32:38.306Z,22.50
2018-08-20T07:35:08.140Z,22.50
2018-08-20T07:37:37.217Z,22.60
2018-08-20T07:40:07.215Z,22.70
2018-08-20T07:42:36.174Z,22.70
2018-08-20T07:45:05.152Z,22.90
2018-08-20T07:47:34.147Z,22.90
2018-08-20T07:50:03.112Z,22.90
2018-08-20T07:52:32.331Z,23.00
2018-08-20T07:55:01.308Z,23.10
2018-08-20T07:57:30.276Z,23.00
2018-08-20T07:59:59.227Z,23.10
2018-08-20T08:02:28.187Z,23.00
2018-08-20T08:04:57.156Z,23.10
2018-08-20T08:07:26.121Z,23.20
2018-08-20T08:09:55.365Z,23.30
2018-08-20T08:12:24.332Z,23.20
2018-08-20T08:14:53.308Z,23.20
2018-08-20T08:17:22.491Z,23.30
2018-08-20T08:19:51.911Z,23.30
2018-08-20T08:22:21.022Z,23.30
2018-08-20T08:24:49.967Z,23.20
2018-08-20T08:27:18.916Z,23.20
2018-08-20T08:29:47.867Z,23.20
2018-08-20T08:32:17.330Z,23.20
2018-08-20T08:34:46.348Z,23.10
2018-08-20T08:37:15.360Z,23.00
2018-08-20T08:39:51.428Z,22.80
2018-08-20T08:42:20.559Z,22.80
2018-08-20T08:44:50.432Z,23.00
2018-08-20T08:47:19.414Z,23.10
2018-08-20T08:49:48.467Z,23.30
2018-08-20T08:52:17.427Z,23.60
2018-08-20T08:54:46.424Z,23.70
2018-08-20T08:57:15.377Z,23.90
2018-08-20T08:59:44.383Z,24.10
2018-08-20T09:02:13.159Z,24.30
2018-08-20T09:04:42.133Z,24.70
2018-08-20T09:07:11.111Z,25.00
2018-08-20T09:09:40.159Z,25.30
2018-08-20T09:12:09.159Z,25.20
2018-08-20T09:14:38.519Z,25.10
2018-08-20T09:17:07.748Z,25.10
2018-08-20T09:19:36.724Z,24.80
2018-08-20T09:22:06.051Z,24.90
2018-08-20T09:24:35.050Z,25.00
2018-08-20T09:27:04.427Z,25.00
2018-08-20T09:29:33.583Z,24.80
2018-08-20T09:32:02.541Z,24.70
2018-08-20T09:34:31.919Z,24.40
2018-08-20T09:37:00.907Z,24.40
2018-08-20T09:39:29.887Z,24.50
2018-08-20T09:41:58.899Z,24.60
2018-08-20T09:44:27.855Z,24.90
2018-08-20T09:46:56.818Z,24.90
2018-08-20T09:49:26.272Z,25.00
2018-08-20T09:51:55.383Z,25.30
2018-08-20T09:54:25.163Z,25.40
2018-08-20T09:56:54.468Z,25.10
2018-08-20T09:59:23.681Z,24.70
2018-08-20T10:01:52.756Z,24.70
2018-08-20T10:04:21.763Z,24.70
2018-08-20T10:06:50.723Z,24.50
2018-08-20T10:09:19.768Z,24.70
2018-08-20T10:11:48.747Z,24.90
2018-08-20T10:14:17.916Z,25.00
2018-08-20T10:16:47.157Z,24.90
2018-08-20T10:19:16.522Z,24.60
2018-08-20T10:21:45.783Z,24.70
2018-08-20T10:24:15.034Z,24.60
2018-08-20T10:26:44.024Z,24.50
2018-08-20T10:29:13.000Z,24.50
2018-08-20T10:31:42.088Z,24.40
2018-08-20T10:34:11.080Z,23.90
2018-08-20T10:36:40.035Z,23.80
2018-08-20T10:39:10.954Z,23.70
2018-08-20T10:41:40.313Z,23.70
2018-08-20T10:44:09.843Z,23.90
2018-08-20T10:46:39.134Z,24.00
2018-08-20T10:49:08.393Z,24.00
2018-08-20T10:51:37.417Z,23.90
2018-08-20T10:54:06.435Z,23.80
2018-08-20T10:56:35.495Z,24.00
2018-08-20T10:59:04.578Z,24.30
2018-08-20T11:01:33.556Z,24.50
2018-08-20T11:04:02.511Z,24.50
2018-08-20T11:06:31.463Z,24.40
2018-08-20T11:09:00.427Z,24.40
2018-08-20T11:11:29.437Z,24.50
2018-08-20T11:13:58.432Z,24.70
2018-08-20T11:16:27.419Z,24.50
2018-08-20T11:18:56.368Z,24.70
2018-08-20T11:21:25.382Z,24.80
2018-08-20T11:23:54.395Z,25.10
2018-08-20T11:26:23.344Z,25.40
2018-08-20T11:28:52.283Z,25.50
2018-08-20T11:31:21.902Z,25.40
2018-08-20T11:33:50.847Z,25.10
2018-08-20T11:36:19.977Z,25.00
2018-08-20T11:38:48.930Z,25.00
2018-08-20T11:41:17.916Z,24.90
2018-08-20T11:43:46.874Z,24.60
2018-08-20T11:46:15.855Z,24.50
2018-08-20T11:48:44.791Z,24.40
2018-08-20T11:51:14.079Z,24.40
2018-08-20T11:53:44.163Z,24.50
2018-08-20T11:56:13.155Z,24.50
2018-08-20T11:58:42.113Z,24.50
2018-08-20T12:01:11.104Z,24.40
2018-08-20T12:03:40.044Z,24.50
2018-08-20T12:06:09.139Z,24.50
2018-08-20T12:08:38.239Z,24.50
2018-08-20T12:11:07.445Z,24.40
2018-08-20T12:13:43.382Z,24.30
2018-08-20T12:16:12.406Z,24.20
2018-08-20T12:18:41.366Z,24.30
2018-08-20T12:21:10.619Z,24.60
2018-08-20T12:23:39.930Z,24.70
2018-08-20T12:26:09.099Z,24.50
2018-08-20T12:28:38.079Z,24.50
2018-08-20T12:31:07.374Z,24.50
2018-08-20T12:33:36.511Z,24.60
2018-08-20T12:36:05.528Z,24.60
2018-08-20T12:38:34.960Z,24.50
2018-08-20T12:41:04.112Z,24.50
2018-08-20T12:43:33.093Z,24.70
2018-08-20T12:46:02.451Z,24.70
2018-08-20T12:48:31.447Z,24.90
2018-08-20T12:51:00.420Z,24.90
2018-08-20T12:53:29.458Z,24.80
2018-08-20T12:55:58.502Z,24.50
2018-08-20T12:58:27.508Z,24.40
2018-08-20T13:00:57.071Z,24.50
2018-08-20T13:03:25.991Z,24.70
2018-08-20T13:05:55.182Z,24.70
2018-08-20T13:08:24.187Z,24.50
2018-08-20T13:10:53.171Z,24.40
2018-08-20T13:13:22.175Z,24.20
2018-08-20T13:15:51.936Z,24.00
2018-08-20T13:18:20.863Z,23.90
2018-08-20T13:20:49.860Z,23.50
2018-08-20T13:23:18.915Z,23.30
2018-08-20T13:25:47.885Z,23.00
2018-08-20T13:28:16.963Z,22.90
2018-08-20T13:30:45.994Z,23.00
2018-08-20T13:33:15.240Z,22.90
2018-08-20T13:35:44.467Z,22.90
2018-08-20T13:38:13.581Z,23.10
2018-08-20T13:40:42.697Z,23.40
2018-08-20T13:43:12.251Z,23.60
2018-08-20T13:45:41.388Z,23.80
2018-08-20T13:48:10.355Z,23.90
2018-08-20T13:50:39.322Z,23.90
2018-08-20T13:53:08.301Z,24.00
2018-08-20T13:55:37.275Z,23.90
2018-08-20T13:58:06.447Z,24.00
2018-08-20T14:00:36.166Z,23.90
2018-08-20T14:03:05.136Z,23.90
2018-08-20T14:05:34.099Z,23.80
2018-08-20T14:08:03.218Z,23.40
2018-08-20T14:10:32.325Z,23.20
2018-08-20T14:13:01.444Z,23.10
2018-08-20T14:15:30.797Z,23.00
2018-08-20T14:17:59.764Z,23.00
2018-08-20T14:20:28.770Z,23.00
2018-08-20T14:22:57.758Z,23.00
2018-08-20T14:25:26.835Z,23.00
2018-08-20T14:27:55.795Z,23.00
2018-08-20T14:30:24.827Z,23.10
2018-08-20T14:32:53.756Z,23.10
2018-08-20T14:35:22.967Z,23.10
2018-08-20T14:37:51.977Z,23.00
2018-08-20T14:40:20.992Z,23.00
2018-08-20T14:42:50.023Z,23.00
2018-08-20T14:45:19.043Z,23.10
2018-08-20T14:47:48.013Z,23.10
2018-08-20T14:50:17.707Z,23.10
2018-08-20T14:52:46.709Z,23.40
2018-08-20T14:55:15.671Z,23.50
2018-08-20T14:57:44.691Z,23.70
2018-08-20T15:00:14.762Z,24.00
2018-08-20T15:02:44.020Z,24.40
2018-08-20T15:05:13.039Z,24.80
2018-08-20T15:07:42.003Z,25.10
2018-08-20T15:10:11.015Z,25.30
2018-08-20T15:12:40.003Z,25.30
2018-08-20T15:15:09.190Z,25.50
2018-08-20T15:17:38.618Z,25.70
2018-08-20T15:20:08.375Z,25.70
2018-08-20T15:22:37.847Z,25.40
2018-08-20T15:25:06.837Z,25.20
2018-08-20T15:27:35.919Z,25.20
2018-08-20T15:30:05.355Z,25.10
2018-08-20T15:32:34.601Z,25.00
2018-08-20T15:35:03.647Z,24.90
2018-08-20T15:37:32.626Z,24.90
2018-08-20T15:40:01.612Z,24.90
2018-08-20T15:42:30.761Z,24.90
2018-08-20T15:44:59.707Z,25.00
2018-08-20T15:47:28.980Z,25.10
2018-08-20T15:49:58.128Z,24.80
2018-08-20T15:52:27.459Z,24.70
2018-08-20T15:54:56.448Z,24.70
2018-08-20T15:57:25.391Z,24.60
2018-08-20T15:59:54.423Z,24.60
2018-08-20T16:02:23.440Z,24.50
2018-08-20T16:04:52.424Z,24.50
2018-08-20T16:07:21.396Z,24.50
2018-08-20T16:09:50.407Z,24.50
2018-08-20T16:12:19.399Z,24.50
2018-08-20T16:14:48.441Z,24.50
2018-08-20T16:17:17.407Z,24.50
2018-08-20T16:22:15.031Z,23.90
2018-08-20T16:24:44.032Z,23.70
2018-08-20T16:27:13.254Z,23.70
2018-08-20T16:29:42.231Z,23.60
2018-08-20T16:32:11.443Z,23.70
2018-08-20T16:34:41.139Z,23.80
2018-08-20T16:37:10.170Z,23.80
2018-08-20T16:39:39.268Z,23.70
2018-08-20T16:42:08.274Z,23.60
2018-08-20T16:44:37.227Z,23.60
2018-08-20T16:47:06.195Z,23.50
2018-08-20T16:49:35.203Z,23.50
2018-08-20T16:52:04.375Z,23.40
2018-08-20T16:54:33.366Z,23.30
2018-08-20T16:57:02.350Z,23.30
2018-08-20T16:59:31.367Z,23.30
2018-08-20T17:02:00.468Z,23.20
2018-08-20T17:04:35.009Z,23.10
2018-08-20T17:07:04.759Z,23.10
2018-08-20T17:09:34.121Z,22.90
2018-08-20T17:12:03.214Z,22.80
2018-08-20T17:14:32.824Z,22.90
2018-08-20T17:17:02.953Z,23.00
2018-08-20T17:19:32.650Z,23.00
2018-08-20T17:22:02.111Z,23.10
2018-08-20T17:24:37.064Z,23.20
2018-08-20T17:27:06.470Z,23.20
2018-08-20T17:29:35.491Z,23.20
2018-08-20T17:32:05.918Z,23.10
2018-08-20T17:34:37.684Z,23.10
2018-08-20T17:37:07.193Z,23.00
2018-08-20T17:39:52.895Z,22.90
2018-08-20T17:42:22.110Z,22.90
2018-08-20T17:44:51.309Z,22.70
2018-08-20T17:47:24.405Z,22.60
2018-08-20T17:49:54.884Z,22.50
2018-08-20T17:52:38.891Z,22.60
2018-08-20T17:55:08.101Z,22.60
2018-08-20T17:57:37.280Z,22.50
2018-08-20T18:00:16.803Z,22.60
2018-08-20T18:02:45.807Z,22.50
2018-08-20T18:05:15.166Z,22.50
2018-08-20T18:07:44.594Z,22.40
2018-08-20T18:10:14.808Z,22.40
2018-08-20T18:12:44.243Z,22.40
2018-08-20T18:15:15.454Z,22.30
2018-08-20T18:17:45.244Z,22.20
2018-08-20T18:22:44.117Z,22.10
2018-08-20T18:25:13.183Z,22.00
2018-08-20T18:27:44.038Z,22.00
2018-08-20T18:30:16.599Z,21.90
2018-08-20T18:32:45.905Z,21.90
2018-08-20T18:35:22.639Z,21.80
2018-08-20T18:37:52.284Z,21.80
2018-08-20T18:40:21.523Z,21.70
2018-08-20T18:42:50.483Z,21.80
2018-08-20T18:45:19.487Z,21.70
2018-08-20T18:47:48.435Z,21.70
2018-08-20T18:50:17.407Z,21.70
2018-08-20T18:52:46.363Z,21.60
2018-08-20T18:55:15.432Z,21.60
2018-08-20T18:57:44.439Z,21.60
2018-08-20T19:00:14.459Z,21.60
2018-08-20T19:02:47.693Z,21.60
2018-08-20T19:05:17.657Z,21.60
2018-08-20T19:07:46.956Z,21.60
2018-08-20T19:10:19.074Z,21.60
2018-08-20T19:12:48.378Z,21.50
2018-08-20T19:15:29.363Z,21.50
2018-08-20T19:17:58.812Z,21.50
2018-08-20T19:20:34.543Z,21.50
2018-08-20T19:23:03.777Z,21.40
2018-08-20T19:25:32.783Z,21.40
2018-08-20T19:28:07.856Z,21.40
2018-08-20T19:30:36.917Z,21.40
2018-08-20T19:33:10.171Z,21.40
2018-08-20T19:35:39.214Z,21.40
2018-08-20T19:38:08.665Z,21.40
2018-08-20T19:40:38.028Z,21.40
2018-08-20T19:43:07.045Z,21.40
2018-08-20T19:45:42.415Z,21.40
2018-08-20T19:48:11.932Z,21.30
2018-08-20T19:50:40.913Z,21.30
2018-08-20T19:53:15.332Z,21.20
2018-08-20T19:55:44.307Z,21.20
2018-08-20T19:58:20.566Z,21.20
2018-08-20T20:01:01.931Z,21.10
2018-08-20T20:03:32.191Z,21.00
2018-08-20T20:06:02.285Z,20.90
2018-08-20T20:08:31.448Z,20.80
2018-08-20T20:11:00.443Z,20.80
2018-08-20T20:13:29.498Z,20.80
2018-08-20T20:16:00.716Z,20.80
2018-08-20T20:18:29.931Z,20.70
2018-08-20T20:20:59.025Z,20.80
2018-08-20T20:23:28.148Z,20.70
2018-08-20T20:25:57.211Z,20.70
2018-08-20T20:28:26.154Z,20.80
2018-08-20T20:30:55.212Z,20.80
2018-08-20T20:33:24.194Z,20.70
2018-08-20T20:35:53.598Z,20.80
2018-08-20T20:38:22.693Z,20.70
2018-08-20T20:40:51.595Z,20.80
2018-08-20T20:43:29.983Z,20.80
2018-08-20T20:45:59.163Z,20.80
2018-08-20T20:48:28.163Z,20.80
2018-08-20T20:50:57.972Z,20.80
2018-08-20T20:53:26.974Z,20.80
2018-08-20T20:55:56.350Z,20.80
2018-08-20T20:58:30.606Z,20.70
2018-08-20T21:01:00.573Z,20.60
2018-08-20T21:03:29.560Z,20.70
2018-08-20T21:05:58.581Z,20.70
2018-08-20T21:08:59.792Z,20.60
2018-08-20T21:11:29.387Z,20.70
2018-08-20T21:13:58.478Z,20.60
2018-08-20T21:16:27.468Z,20.50
2018-08-20T21:18:57.353Z,20.50
2018-08-20T21:21:27.352Z,20.50
2018-08-20T21:23:57.055Z,20.50
2018-08-20T21:26:26.143Z,20.50
2018-08-20T21:28:55.803Z,20.50
2018-08-20T21:31:26.248Z,20.50
2018-08-20T21:33:56.842Z,20.50
2018-08-20T21:36:25.925Z,20.50
2018-08-20T21:38:54.988Z,20.50
2018-08-20T21:41:25.279Z,20.50
2018-08-20T21:43:54.696Z,20.50
2018-08-20T21:46:23.840Z,20.50
2018-08-20T21:48:52.860Z,20.50
2018-08-20T21:51:30.122Z,20.50
2018-08-20T21:53:59.760Z,20.50
2018-08-20T21:56:52.700Z,20.40
2018-08-20T21:59:21.904Z,20.40
2018-08-20T22:01:50.899Z,20.30
2018-08-20T22:04:21.060Z,20.30
2018-08-20T22:06:50.542Z,20.30
2018-08-20T22:09:19.572Z,20.20
2018-08-20T22:11:48.535Z,20.30
2018-08-20T22:14:17.722Z,20.30
2018-08-20T22:16:46.687Z,20.30
2018-08-20T22:19:15.943Z,20.30
2018-08-20T22:21:45.205Z,20.20
2018-08-20T22:24:14.476Z,20.20
2018-08-20T22:26:50.604Z,20.30
2018-08-20T22:29:19.902Z,20.30
2018-08-20T22:31:54.338Z,20.30
2018-08-20T22:34:29.315Z,20.40
2018-08-20T22:37:04.537Z,20.40
2018-08-20T22:39:33.478Z,20.40
2018-08-20T22:42:02.446Z,20.40
2018-08-20T22:44:31.388Z,20.40
2018-08-20T22:47:00.382Z,20.40
2018-08-20T22:49:29.352Z,20.30
2018-08-20T22:51:58.464Z,20.20
2018-08-20T22:54:27.407Z,20.10
2018-08-20T22:59:31.699Z,20.10
2018-08-20T23:02:00.656Z,20.00
2018-08-20T23:04:29.900Z,20.10
2018-08-20T23:07:03.444Z,20.00
2018-08-20T23:09:32.886Z,20.00
2018-08-20T23:12:01.895Z,19.90
2018-08-20T23:14:31.612Z,19.90
2018-08-20T23:17:00.640Z,19.90
2018-08-20T23:19:29.994Z,19.90
2018-08-20T23:21:58.993Z,19.90
2018-08-20T23:24:27.967Z,19.90
2018-08-20T23:26:56.924Z,19.90
2018-08-20T23:29:25.904Z,19.90
2018-08-20T23:31:54.859Z,19.80
2018-08-20T23:34:23.844Z,19.80
2018-08-20T23:36:52.785Z,19.90
2018-08-20T23:39:21.719Z,19.80
2018-08-20T23:41:50.705Z,19.80
2018-08-20T23:44:19.680Z,19.80
2018-08-20T23:46:50.183Z,19.70
2018-08-20T23:49:19.131Z,19.80
2018-08-20T23:51:48.143Z,19.70
2018-08-20T23:54:17.086Z,19.70
2018-08-20T23:56:46.155Z,19.70
2018-08-20T23:59:15.127Z,19.60
